createdAt,value
2019-04-07T00:00:01.353Z,96.33
2019-04-07T00:01:02.344Z,96.30
2019-04-07T00:02:01.607Z,96.42
2019-04-07T00:03:03.694Z,96.99
2019-04-07T00:04:02.939Z,97.04
2019-04-07T00:05:11.062Z,97.22
2019-04-07T00:06:04.368Z,97.23
2019-04-07T00:07:05.837Z,97.01
2019-04-07T00:08:06.772Z,97.00
2019-04-07T00:09:06.054Z,97.48
2019-04-07T00:10:06.354Z,97.43
2019-04-07T00:11:08.372Z,97.53
2019-04-07T00:12:07.454Z,97.29
2019-04-07T00:12:16.494Z,97.07
2019-04-07T00:13:18.414Z,97.07
2019-04-07T00:14:18.069Z,97.25
2019-04-07T00:15:18.493Z,97.31
2019-04-07T00:16:20.191Z,97.15
2019-04-07T00:17:19.689Z,97.12
2019-04-07T00:18:21.749Z,96.74
2019-04-07T00:19:20.886Z,97.14
2019-04-07T00:20:21.215Z,97.07
2019-04-07T00:21:22.812Z,96.63
2019-04-07T00:22:23.558Z,96.77
2019-04-07T00:23:24.117Z,96.71
2019-04-07T00:24:24.727Z,96.58
2019-04-07T00:25:25.225Z,96.72
2019-04-07T00:26:26.005Z,96.86
2019-04-07T00:27:25.746Z,96.71
2019-04-07T00:28:26.250Z,96.56
2019-04-07T00:29:28.047Z,96.37
2019-04-07T00:30:29.242Z,96.71
2019-04-07T00:31:28.069Z,97.09
2019-04-07T00:32:29.529Z,97.08
2019-04-07T00:33:30.224Z,96.81
2019-04-07T00:34:31.101Z,96.51
2019-04-07T00:35:32.563Z,96.18
2019-04-07T00:36:31.449Z,95.92
2019-04-07T00:37:33.666Z,95.87
2019-04-07T00:38:33.215Z,95.74
2019-04-07T00:39:33.580Z,95.48
2019-04-07T00:40:33.907Z,95.02
2019-04-07T00:41:35.505Z,95.59
2019-04-07T00:42:35.997Z,95.64
2019-04-07T00:43:36.628Z,95.46
2019-04-07T00:44:37.813Z,95.38
2019-04-07T00:45:37.012Z,95.00
2019-04-07T00:46:37.648Z,95.03
2019-04-07T00:47:39.254Z,95.16
2019-04-07T00:48:39.730Z,95.76
2019-04-07T00:49:40.208Z,95.67
2019-04-07T00:50:40.713Z,95.65
2019-04-07T00:51:42.091Z,95.33
2019-04-07T00:52:41.124Z,95.65
2019-04-07T00:53:42.924Z,95.86
2019-04-07T00:54:43.502Z,96.05
2019-04-07T00:55:44.047Z,96.39
2019-04-07T00:56:44.520Z,96.14
2019-04-07T00:57:45.620Z,96.62
2019-04-07T00:58:44.790Z,96.60
2019-04-07T00:59:47.310Z,96.42
2019-04-07T01:00:46.180Z,96.41
2019-04-07T01:01:47.635Z,96.62
2019-04-07T01:02:48.642Z,97.28
2019-04-07T01:03:48.147Z,97.39
2019-04-07T01:04:48.767Z,97.52
2019-04-07T01:05:51.072Z,97.30
2019-04-07T01:06:50.197Z,97.06
2019-04-07T01:07:52.166Z,97.05
2019-04-07T01:08:52.829Z,96.94
2019-04-07T01:09:53.326Z,97.44
2019-04-07T01:10:54.022Z,97.20
2019-04-07T01:11:02.564Z,97.35
2019-04-07T01:12:04.117Z,97.36
2019-04-07T01:13:03.786Z,97.38
2019-04-07T01:14:04.463Z,97.23
2019-04-07T01:15:06.294Z,97.67
2019-04-07T01:16:07.011Z,97.25
2019-04-07T01:17:07.113Z,97.26
2019-04-07T01:18:07.779Z,97.39
2019-04-07T01:19:07.925Z,97.26
2019-04-07T01:20:09.551Z,97.03
2019-04-07T01:21:10.132Z,97.06
2019-04-07T01:22:11.131Z,97.63
2019-04-07T01:23:10.631Z,97.54
2019-04-07T01:24:11.142Z,97.43
2019-04-07T01:25:13.017Z,97.48
2019-04-07T01:26:13.823Z,97.49
2019-04-07T01:27:13.226Z,97.75
2019-04-07T01:28:15.028Z,97.58
2019-04-07T01:29:15.668Z,97.71
2019-04-07T01:30:15.140Z,97.60
2019-04-07T01:31:16.660Z,97.62
2019-04-07T01:32:17.168Z,97.44
2019-04-07T01:33:17.425Z,97.44
2019-04-07T01:34:16.797Z,97.41
2019-04-07T01:35:18.324Z,97.20
2019-04-07T01:36:19.024Z,97.20
2019-04-07T01:37:19.743Z,97.60
2019-04-07T01:38:19.219Z,97.79
2019-04-07T01:39:20.825Z,97.83
2019-04-07T01:40:21.491Z,97.93
2019-04-07T01:41:21.954Z,97.91
2019-04-07T01:42:22.907Z,97.75
2019-04-07T01:43:22.694Z,97.54
2019-04-07T01:44:23.355Z,97.49
2019-04-07T01:45:23.762Z,97.76
2019-04-07T01:46:24.227Z,98.10
2019-04-07T01:47:24.731Z,98.35
2019-04-07T01:48:26.861Z,98.48
2019-04-07T01:49:26.048Z,98.00
2019-04-07T01:50:27.763Z,98.30
2019-04-07T01:51:28.289Z,98.64
2019-04-07T01:52:28.986Z,98.77
2019-04-07T01:53:30.259Z,98.42
2019-04-07T01:54:29.177Z,98.97
2019-04-07T01:55:31.065Z,99.05
2019-04-07T01:56:30.462Z,98.62
2019-04-07T01:57:31.045Z,98.96
2019-04-07T01:58:31.679Z,99.96
2019-04-07T01:59:31.965Z,99.69
2019-04-07T02:00:33.795Z,99.32
2019-04-07T02:01:32.896Z,98.82
2019-04-07T02:02:34.359Z,98.75
2019-04-07T02:03:35.700Z,99.29
2019-04-07T02:04:34.740Z,99.36
2019-04-07T02:05:35.294Z,99.23
2019-04-07T02:06:36.435Z,99.06
2019-04-07T02:07:37.434Z,99.13
2019-04-07T02:08:37.452Z,99.26
2019-04-07T02:09:37.827Z,99.12
2019-04-07T02:10:37.763Z,98.95
2019-04-07T02:11:38.597Z,99.18
2019-04-07T02:12:38.712Z,99.04
2019-04-07T02:13:40.453Z,99.02
2019-04-07T02:14:39.761Z,99.40
2019-04-07T02:15:41.460Z,99.94
2019-04-07T02:16:41.125Z,99.89
2019-04-07T02:17:41.619Z,99.85
2019-04-07T02:18:42.238Z,99.81
2019-04-07T02:19:43.733Z,99.66
2019-04-07T02:20:44.245Z,99.50
2019-04-07T02:21:44.980Z,99.71
2019-04-07T02:22:44.462Z,100.19
2019-04-07T02:22:53.981Z,99.93
2019-04-07T02:23:54.802Z,99.90
2019-04-07T02:24:54.591Z,100.12
2019-04-07T02:25:56.033Z,100.14
2019-04-07T02:26:56.548Z,99.83
2019-04-07T02:27:57.047Z,100.06
2019-04-07T02:28:57.512Z,100.54
2019-04-07T02:29:58.023Z,100.81
2019-04-07T02:30:58.966Z,100.91
2019-04-07T02:31:58.534Z,101.18
2019-04-07T02:32:58.641Z,100.91
2019-04-07T02:34:00.292Z,100.95
2019-04-07T02:35:01.519Z,101.06
2019-04-07T02:36:14.511Z,101.46
2019-04-07T02:37:00.835Z,101.71
2019-04-07T02:38:02.362Z,101.68
2019-04-07T02:39:02.776Z,101.35
2019-04-07T02:40:03.508Z,101.00
2019-04-07T02:41:02.688Z,101.36
2019-04-07T02:42:04.644Z,101.70
2019-04-07T02:43:03.724Z,101.78
2019-04-07T02:44:05.252Z,101.45
2019-04-07T02:45:05.805Z,101.23
2019-04-07T02:46:05.826Z,101.02
2019-04-07T02:47:06.500Z,100.61
2019-04-07T02:48:07.044Z,100.89
2019-04-07T02:49:08.190Z,100.83
2019-04-07T02:50:07.989Z,100.40
2019-04-07T02:51:09.696Z,100.55
2019-04-07T02:52:09.186Z,100.72
2019-04-07T02:53:11.020Z,100.28
2019-04-07T02:54:10.390Z,100.05
2019-04-07T02:55:12.022Z,100.31
2019-04-07T02:56:11.646Z,100.46
2019-04-07T02:57:13.272Z,100.31
2019-04-07T02:58:13.667Z,100.05
2019-04-07T02:59:14.412Z,100.00
2019-04-07T03:00:14.052Z,99.99
2019-04-07T03:01:14.425Z,99.74
2019-04-07T03:02:15.912Z,99.56
2019-04-07T03:03:17.152Z,99.25
2019-04-07T03:04:16.091Z,99.21
2019-04-07T03:05:16.513Z,99.30
2019-04-07T03:06:35.758Z,98.97
2019-04-07T03:07:17.723Z,98.90
2019-04-07T03:08:19.294Z,98.82
2019-04-07T03:09:20.488Z,99.13
2019-04-07T03:10:18.866Z,99.44
2019-04-07T03:11:21.220Z,99.35
2019-04-07T03:12:21.227Z,99.30
2019-04-07T03:13:21.210Z,99.52
2019-04-07T03:14:21.626Z,100.00
2019-04-07T03:15:22.669Z,99.61
2019-04-07T03:16:22.435Z,99.10
2019-04-07T03:17:23.374Z,99.12
2019-04-07T03:18:25.202Z,99.20
2019-04-07T03:19:24.019Z,99.05
2019-04-07T03:20:25.869Z,99.47
2019-04-07T03:21:26.802Z,99.76
2019-04-07T03:22:26.188Z,100.12
2019-04-07T03:23:26.772Z,100.50
2019-04-07T03:24:28.679Z,100.73
2019-04-07T03:25:28.125Z,100.89
2019-04-07T03:26:29.344Z,101.48
2019-04-07T03:27:29.117Z,101.87
2019-04-07T03:28:30.696Z,102.06
2019-04-07T03:29:31.099Z,102.17
2019-04-07T03:30:32.913Z,102.21
2019-04-07T03:31:32.338Z,102.34
2019-04-07T03:32:33.691Z,102.49
2019-04-07T03:33:35.121Z,102.48
2019-04-07T03:34:33.811Z,102.78
2019-04-07T03:35:34.811Z,102.68
2019-04-07T03:37:01.379Z,101.94
2019-04-07T03:37:42.802Z,101.52
2019-04-07T03:38:35.300Z,101.38
2019-04-07T03:39:35.569Z,101.05
2019-04-07T03:40:37.271Z,101.38
2019-04-07T03:41:38.605Z,101.28
2019-04-07T03:42:38.541Z,101.41
2019-04-07T03:43:38.256Z,101.36
2019-04-07T03:44:40.818Z,100.88
2019-04-07T03:45:39.470Z,100.49
2019-04-07T03:46:41.409Z,100.52
2019-04-07T03:47:41.756Z,100.62
2019-04-07T03:48:41.699Z,100.79
2019-04-07T03:49:41.983Z,100.75
2019-04-07T03:49:50.889Z,100.40
2019-04-07T03:50:51.288Z,100.39
2019-04-07T03:51:52.837Z,100.41
2019-04-07T03:52:54.370Z,100.31
2019-04-07T03:53:53.948Z,99.92
2019-04-07T03:54:54.587Z,100.51
2019-04-07T03:55:54.351Z,100.58
2019-04-07T03:56:56.527Z,100.29
2019-04-07T03:57:55.698Z,100.32
2019-04-07T03:58:57.879Z,100.44
2019-04-07T03:59:57.754Z,101.21
2019-04-07T04:00:57.191Z,101.25
2019-04-07T04:01:59.172Z,101.35
2019-04-07T04:02:59.241Z,101.02
2019-04-07T04:03:59.307Z,101.11
2019-04-07T04:05:00.880Z,101.39
2019-04-07T04:06:00.933Z,101.85
2019-04-07T04:07:18.023Z,101.55
2019-04-07T04:08:02.167Z,101.49
2019-04-07T04:09:02.375Z,101.38
2019-04-07T04:10:04.151Z,101.23
2019-04-07T04:11:04.219Z,101.08
2019-04-07T04:12:05.102Z,101.16
2019-04-07T04:13:05.311Z,100.92
2019-04-07T04:14:05.646Z,101.24
2019-04-07T04:15:07.159Z,101.17
2019-04-07T04:16:08.030Z,100.87
2019-04-07T04:17:07.173Z,100.87
2019-04-07T04:18:08.281Z,100.99
2019-04-07T04:19:08.727Z,101.10
2019-04-07T04:20:09.160Z,101.48
2019-04-07T04:21:09.641Z,101.29
2019-04-07T04:22:10.156Z,101.08
2019-04-07T04:23:11.611Z,101.16
2019-04-07T04:24:10.365Z,101.24
2019-04-07T04:25:10.913Z,100.94
2019-04-07T04:26:11.818Z,100.49
2019-04-07T04:27:13.382Z,100.62
2019-04-07T04:28:14.326Z,101.01
2019-04-07T04:29:13.322Z,100.58
2019-04-07T04:30:14.903Z,100.60
2019-04-07T04:31:15.529Z,100.68
2019-04-07T04:32:15.298Z,100.52
2019-04-07T04:33:15.946Z,101.07
2019-04-07T04:34:16.039Z,100.93
2019-04-07T04:35:17.694Z,100.96
2019-04-07T04:36:18.335Z,101.03
2019-04-07T04:37:34.352Z,101.82
2019-04-07T04:38:18.443Z,101.90
2019-04-07T04:39:21.114Z,101.75
2019-04-07T04:40:20.686Z,101.58
2019-04-07T04:41:20.920Z,101.60
2019-04-07T04:42:20.548Z,101.42
2019-04-07T04:43:21.024Z,101.46
2019-04-07T04:44:24.030Z,101.58
2019-04-07T04:45:22.459Z,101.21
2019-04-07T04:46:23.897Z,100.77
2019-04-07T04:47:23.712Z,100.52
2019-04-07T04:48:25.934Z,100.47
2019-04-07T04:49:25.278Z,100.01
2019-04-07T04:50:27.528Z,99.87
2019-04-07T04:51:26.607Z,100.47
2019-04-07T04:52:28.566Z,100.72
2019-04-07T04:53:30.692Z,100.98
2019-04-07T04:54:29.095Z,100.84
2019-04-07T04:55:29.751Z,100.96
2019-04-07T04:56:30.940Z,101.06
2019-04-07T04:57:31.893Z,100.89
2019-04-07T04:58:32.252Z,100.93
2019-04-07T04:59:33.282Z,101.12
2019-04-07T05:00:34.058Z,100.96
2019-04-07T05:01:34.406Z,100.92
2019-04-07T05:02:34.834Z,100.35
2019-04-07T05:03:36.183Z,101.12
2019-04-07T05:04:36.122Z,101.33
2019-04-07T05:05:38.064Z,101.14
2019-04-07T05:06:37.908Z,101.40
2019-04-07T05:07:50.759Z,101.04
2019-04-07T05:08:39.201Z,100.73
2019-04-07T05:09:46.119Z,101.41
2019-04-07T05:10:40.570Z,101.10
2019-04-07T05:11:40.815Z,101.16
2019-04-07T05:12:42.015Z,101.24
2019-04-07T05:13:42.177Z,100.51
2019-04-07T05:14:42.872Z,100.47
2019-04-07T05:15:43.435Z,100.73
2019-04-07T05:16:43.741Z,101.32
2019-04-07T05:16:52.463Z,101.16
2019-04-07T05:17:53.838Z,101.14
2019-04-07T05:18:54.106Z,100.49
2019-04-07T05:19:54.989Z,99.98
2019-04-07T05:20:55.339Z,99.68
2019-04-07T05:21:55.891Z,99.85
2019-04-07T05:22:56.481Z,99.87
2019-04-07T05:23:58.201Z,99.94
2019-04-07T05:24:58.771Z,100.08
2019-04-07T05:25:59.223Z,99.39
2019-04-07T05:26:58.554Z,99.50
2019-04-07T05:27:58.966Z,99.99
2019-04-07T05:29:01.422Z,99.60
2019-04-07T05:30:00.359Z,99.26
2019-04-07T05:31:02.404Z,99.67
2019-04-07T05:32:01.617Z,99.13
2019-04-07T05:33:03.603Z,99.87
2019-04-07T05:34:04.297Z,99.79
2019-04-07T05:35:05.902Z,99.97
2019-04-07T05:36:04.884Z,100.12
2019-04-07T05:37:05.516Z,100.44
2019-04-07T05:38:08.296Z,99.84
2019-04-07T05:39:06.696Z,99.89
2019-04-07T05:40:08.283Z,99.88
2019-04-07T05:41:09.129Z,100.30
2019-04-07T05:42:09.430Z,100.13
2019-04-07T05:43:10.700Z,100.48
2019-04-07T05:44:09.855Z,100.40
2019-04-07T05:45:11.557Z,99.42
2019-04-07T05:46:11.100Z,99.60
2019-04-07T05:47:14.399Z,99.45
2019-04-07T05:48:12.322Z,99.75
2019-04-07T05:49:16.258Z,99.52
2019-04-07T05:50:14.240Z,99.49
2019-04-07T05:51:14.384Z,99.94
2019-04-07T05:52:15.166Z,99.43
2019-04-07T05:53:17.056Z,98.92
2019-04-07T05:54:19.502Z,99.15
2019-04-07T05:55:20.655Z,99.45
2019-04-07T05:56:18.452Z,99.18
2019-04-07T05:57:18.677Z,99.27
2019-04-07T05:58:20.234Z,98.90
2019-04-07T05:59:21.090Z,99.12
2019-04-07T06:00:20.753Z,98.86
2019-04-07T06:01:23.409Z,98.92
2019-04-07T06:02:22.280Z,98.38
2019-04-07T06:03:22.804Z,97.87
2019-04-07T06:04:22.832Z,97.32
2019-04-07T06:05:24.649Z,97.77
2019-04-07T06:06:25.880Z,98.28
2019-04-07T06:07:28.793Z,97.20
2019-04-07T06:08:33.733Z,97.35
2019-04-07T06:09:26.438Z,96.83
2019-04-07T06:10:28.959Z,96.41
2019-04-07T06:11:31.179Z,95.15
2019-04-07T06:12:28.421Z,94.16
2019-04-07T06:13:29.145Z,93.13
2019-04-07T06:14:29.046Z,92.11
2019-04-07T06:15:31.263Z,90.54
2019-04-07T06:16:30.496Z,89.80
2019-04-07T06:17:30.471Z,87.81
2019-04-07T06:18:34.131Z,86.37
2019-04-07T06:19:31.599Z,85.17
2019-04-07T06:20:33.440Z,82.13
2019-04-07T06:21:32.416Z,81.40
2019-04-07T06:22:33.834Z,79.87
2019-04-07T06:23:33.611Z,78.06
2019-04-07T06:24:36.184Z,77.79
2019-04-07T06:25:40.906Z,75.32
2019-04-07T06:26:36.971Z,74.52
2019-04-07T06:27:36.098Z,72.85
2019-04-07T06:28:38.117Z,73.84
2019-04-07T06:29:37.781Z,70.75
2019-04-07T06:30:37.972Z,70.05
2019-04-07T06:31:39.075Z,70.94
2019-04-07T06:32:39.776Z,70.67
2019-04-07T06:33:40.480Z,68.64
2019-04-07T06:34:43.123Z,67.01
2019-04-07T06:35:43.799Z,67.47
2019-04-07T06:36:41.646Z,67.45
2019-04-07T06:37:43.206Z,65.98
2019-04-07T06:38:50.353Z,65.93
2019-04-07T06:39:44.042Z,63.59
2019-04-07T06:40:43.776Z,64.54
2019-04-07T06:40:56.479Z,65.00
2019-04-07T06:41:53.436Z,64.29
2019-04-07T06:42:53.441Z,64.76
2019-04-07T06:44:02.617Z,62.03
2019-04-07T06:44:55.320Z,62.29
2019-04-07T06:45:55.360Z,62.42
2019-04-07T06:46:59.112Z,61.38
2019-04-07T06:47:56.262Z,61.20
2019-04-07T06:48:56.586Z,59.95
2019-04-07T06:49:58.558Z,59.10
2019-04-07T06:50:59.744Z,58.61
2019-04-07T06:52:02.951Z,59.37
2019-04-07T06:52:59.147Z,60.73
2019-04-07T06:54:01.177Z,58.20
2019-04-07T06:55:00.542Z,58.88
2019-04-07T06:56:03.907Z,56.27
2019-04-07T06:57:05.113Z,57.53
2019-04-07T06:58:06.093Z,56.24
2019-04-07T06:59:03.556Z,55.22
2019-04-07T07:00:03.833Z,55.68
2019-04-07T07:01:05.832Z,55.98
2019-04-07T07:02:05.490Z,53.95
2019-04-07T07:03:06.157Z,54.02
2019-04-07T07:04:10.867Z,54.17
2019-04-07T07:05:07.103Z,54.37
2019-04-07T07:06:08.675Z,53.43
2019-04-07T07:07:09.838Z,54.24
2019-04-07T07:08:10.042Z,52.53
2019-04-07T07:09:10.365Z,53.02
2019-04-07T07:10:10.393Z,53.57
2019-04-07T07:11:10.584Z,53.43
2019-04-07T07:12:19.898Z,52.26
2019-04-07T07:13:20.698Z,51.67
2019-04-07T07:14:14.064Z,50.29
2019-04-07T07:15:12.845Z,52.70
2019-04-07T07:16:15.722Z,53.03
2019-04-07T07:17:18.041Z,51.30
2019-04-07T07:18:15.434Z,50.45
2019-04-07T07:19:15.300Z,52.09
2019-04-07T07:20:16.844Z,50.99
2019-04-07T07:21:17.781Z,50.39
2019-04-07T07:22:18.679Z,51.20
2019-04-07T07:23:19.162Z,51.04
2019-04-07T07:24:24.968Z,50.28
2019-04-07T07:25:20.385Z,50.17
2019-04-07T07:26:21.762Z,50.00
2019-04-07T07:27:20.776Z,49.98
2019-04-07T07:28:21.459Z,51.00
2019-04-07T07:29:23.783Z,51.91
2019-04-07T07:30:22.390Z,50.85
2019-04-07T07:31:25.486Z,49.52
2019-04-07T07:32:23.608Z,51.07
2019-04-07T07:33:25.159Z,50.86
2019-04-07T07:34:25.942Z,50.18
2019-04-07T07:35:27.211Z,48.36
2019-04-07T07:36:26.402Z,48.63
2019-04-07T07:37:28.002Z,48.75
2019-04-07T07:38:31.125Z,47.17
2019-04-07T07:39:28.402Z,47.94
2019-04-07T07:40:30.020Z,46.71
2019-04-07T07:41:29.807Z,48.10
2019-04-07T07:42:32.127Z,48.58
2019-04-07T07:43:31.902Z,47.45
2019-04-07T07:44:35.904Z,47.58
2019-04-07T07:45:32.997Z,47.77
2019-04-07T07:46:33.301Z,47.62
2019-04-07T07:47:33.774Z,47.99
2019-04-07T07:48:34.243Z,47.31
2019-04-07T07:49:39.902Z,47.47
2019-04-07T07:50:38.079Z,47.11
2019-04-07T07:51:38.425Z,47.16
2019-04-07T07:52:36.438Z,47.47
2019-04-07T07:53:38.345Z,47.02
2019-04-07T07:54:37.722Z,48.12
2019-04-07T07:55:40.186Z,46.84
2019-04-07T07:56:42.211Z,47.50
2019-04-07T07:57:40.466Z,47.53
2019-04-07T07:58:40.704Z,48.36
2019-04-07T07:59:42.060Z,48.55
2019-04-07T08:00:43.365Z,48.48
2019-04-07T08:01:46.189Z,48.18
2019-04-07T08:02:44.291Z,48.82
2019-04-07T08:03:44.413Z,48.25
2019-04-07T08:04:44.983Z,48.33
2019-04-07T08:05:46.614Z,49.23
2019-04-07T08:06:46.137Z,47.99
2019-04-07T08:07:48.981Z,47.93
2019-04-07T08:08:48.441Z,49.29
2019-04-07T08:09:48.130Z,48.93
2019-04-07T08:10:50.685Z,49.11
2019-04-07T08:11:50.168Z,49.31
2019-04-07T08:12:50.825Z,49.63
2019-04-07T08:13:51.290Z,49.76
2019-04-07T08:14:55.230Z,50.46
2019-04-07T08:15:51.938Z,50.55
2019-04-07T08:16:54.395Z,50.76
2019-04-07T08:17:53.458Z,50.46
2019-04-07T08:18:54.003Z,50.92
2019-04-07T08:19:55.706Z,50.79
2019-04-07T08:20:55.130Z,51.21
2019-04-07T08:21:05.577Z,51.54
2019-04-07T08:22:07.704Z,51.08
2019-04-07T08:23:06.876Z,51.13
2019-04-07T08:24:08.057Z,51.17
2019-04-07T08:25:08.700Z,51.41
2019-04-07T08:26:09.427Z,52.04
2019-04-07T08:27:09.231Z,52.19
2019-04-07T08:28:10.948Z,52.41
2019-04-07T08:29:12.958Z,52.85
2019-04-07T08:30:13.699Z,53.52
2019-04-07T08:31:12.224Z,52.81
2019-04-07T08:32:14.031Z,54.02
2019-04-07T08:33:14.738Z,55.47
2019-04-07T08:34:14.338Z,55.64
2019-04-07T08:35:15.375Z,55.58
2019-04-07T08:36:15.324Z,55.68
2019-04-07T08:37:16.889Z,56.39
2019-04-07T08:38:19.875Z,56.81
2019-04-07T08:39:22.715Z,56.25
2019-04-07T08:40:18.746Z,56.69
2019-04-07T08:41:19.002Z,58.19
2019-04-07T08:42:19.827Z,57.83
2019-04-07T08:43:22.549Z,57.71
2019-04-07T08:44:20.532Z,57.93
2019-04-07T08:45:21.297Z,57.78
2019-04-07T08:46:22.983Z,57.61
2019-04-07T08:47:23.366Z,57.30
2019-04-07T08:48:23.137Z,56.94
2019-04-07T08:49:25.612Z,57.33
2019-04-07T08:50:27.651Z,57.90
2019-04-07T08:51:29.345Z,57.31
2019-04-07T08:52:26.033Z,57.87
2019-04-07T08:53:26.197Z,58.88
2019-04-07T08:54:28.558Z,59.05
2019-04-07T08:55:28.244Z,57.08
2019-04-07T08:56:29.008Z,55.88
2019-04-07T08:57:30.556Z,55.42
2019-04-07T08:58:33.166Z,55.83
2019-04-07T08:59:30.332Z,54.94
2019-04-07T09:00:31.612Z,55.95
2019-04-07T09:01:31.741Z,55.11
2019-04-07T09:02:32.260Z,55.03
2019-04-07T09:03:33.174Z,54.17
2019-04-07T09:04:33.239Z,54.20
2019-04-07T09:05:35.450Z,53.56
2019-04-07T09:06:34.537Z,51.52
2019-04-07T09:07:35.073Z,52.83
2019-04-07T09:08:37.934Z,52.66
2019-04-07T09:09:40.373Z,53.23
2019-04-07T09:10:37.220Z,52.55
2019-04-07T09:11:40.351Z,52.52
2019-04-07T09:12:39.223Z,53.48
2019-04-07T09:13:39.571Z,54.39
2019-04-07T09:14:40.873Z,55.21
2019-04-07T09:15:43.580Z,55.35
2019-04-07T09:16:41.663Z,55.54
2019-04-07T09:17:45.780Z,55.73
2019-04-07T09:18:51.678Z,55.44
2019-04-07T09:19:44.199Z,56.07
2019-04-07T09:20:47.045Z,56.27
2019-04-07T09:21:47.553Z,54.89
2019-04-07T09:22:44.820Z,56.42
2019-04-07T09:23:46.821Z,55.77
2019-04-07T09:24:46.161Z,55.45
2019-04-07T09:25:46.803Z,56.08
2019-04-07T09:26:47.310Z,54.79
2019-04-07T09:27:50.226Z,54.62
2019-04-07T09:28:48.724Z,53.88
2019-04-07T09:29:49.166Z,53.17
2019-04-07T09:30:50.791Z,53.71
2019-04-07T09:31:51.858Z,54.09
2019-04-07T09:32:51.188Z,53.99
2019-04-07T09:33:52.860Z,53.47
2019-04-07T09:34:53.963Z,53.45
2019-04-07T09:35:56.653Z,52.25
2019-04-07T09:36:53.508Z,53.41
2019-04-07T09:37:55.894Z,52.55
2019-04-07T09:39:00.189Z,52.76
2019-04-07T09:39:59.711Z,50.94
2019-04-07T09:40:56.004Z,51.63
2019-04-07T09:41:57.219Z,51.56
2019-04-07T09:42:59.999Z,51.22
2019-04-07T09:44:01.157Z,52.31
2019-04-07T09:44:58.650Z,52.24
2019-04-07T09:46:00.329Z,51.18
2019-04-07T09:47:02.066Z,51.32
2019-04-07T09:48:02.165Z,50.80
2019-04-07T09:49:02.022Z,51.80
2019-04-07T09:50:02.870Z,51.97
2019-04-07T09:51:06.893Z,50.86
2019-04-07T09:52:03.477Z,50.79
2019-04-07T09:53:05.048Z,51.25
2019-04-07T09:54:05.618Z,52.23
2019-04-07T09:55:07.612Z,51.92
2019-04-07T09:56:08.826Z,52.44
2019-04-07T09:57:07.398Z,54.06
2019-04-07T09:58:09.334Z,51.75
2019-04-07T09:59:07.879Z,51.54
2019-04-07T10:00:08.731Z,51.29
2019-04-07T10:01:09.127Z,50.09
2019-04-07T10:02:10.374Z,50.14
2019-04-07T10:03:13.672Z,49.60
2019-04-07T10:04:12.138Z,50.37
2019-04-07T10:05:12.233Z,50.02
2019-04-07T10:06:13.289Z,50.86
2019-04-07T10:07:15.986Z,50.53
2019-04-07T10:08:13.885Z,50.22
2019-04-07T10:09:14.543Z,50.68
2019-04-07T10:10:14.960Z,50.54
2019-04-07T10:10:23.791Z,50.29
2019-04-07T10:11:23.820Z,50.28
2019-04-07T10:12:25.187Z,50.34
2019-04-07T10:13:25.435Z,51.07
2019-04-07T10:14:26.157Z,51.21
2019-04-07T10:15:27.902Z,49.50
2019-04-07T10:16:28.484Z,49.39
2019-04-07T10:17:28.965Z,50.24
2019-04-07T10:18:29.935Z,49.15
2019-04-07T10:19:30.079Z,50.30
2019-04-07T10:20:30.333Z,49.60
2019-04-07T10:21:32.426Z,50.89
2019-04-07T10:22:32.072Z,50.59
2019-04-07T10:23:32.448Z,50.57
2019-04-07T10:24:32.805Z,49.83
2019-04-07T10:25:34.431Z,50.33
2019-04-07T10:26:33.998Z,51.10
2019-04-07T10:27:35.813Z,50.20
2019-04-07T10:28:36.653Z,49.46
2019-04-07T10:29:36.069Z,48.68
2019-04-07T10:30:37.019Z,48.83
2019-04-07T10:31:36.750Z,49.52
2019-04-07T10:32:38.492Z,50.26
2019-04-07T10:33:38.260Z,49.61
2019-04-07T10:34:40.746Z,49.60
2019-04-07T10:35:39.864Z,48.24
2019-04-07T10:36:42.344Z,49.66
2019-04-07T10:37:41.536Z,49.82
2019-04-07T10:38:42.542Z,49.35
2019-04-07T10:39:42.332Z,48.56
2019-04-07T10:40:43.954Z,48.87
2019-04-07T10:41:45.235Z,48.98
2019-04-07T10:42:44.803Z,49.90
2019-04-07T10:43:45.287Z,49.46
2019-04-07T10:44:45.247Z,50.32
2019-04-07T10:45:46.618Z,50.15
2019-04-07T10:46:47.881Z,49.84
2019-04-07T10:47:47.335Z,48.90
2019-04-07T10:48:48.747Z,49.51
2019-04-07T10:49:57.915Z,49.45
2019-04-07T10:50:49.244Z,48.69
2019-04-07T10:51:49.122Z,49.60
2019-04-07T10:52:51.420Z,50.17
2019-04-07T10:53:51.089Z,50.13
2019-04-07T10:54:50.588Z,50.75
2019-04-07T10:55:52.153Z,51.14
2019-04-07T10:56:51.861Z,49.73
2019-04-07T10:57:52.472Z,50.11
2019-04-07T10:58:53.925Z,50.02
2019-04-07T10:59:53.892Z,50.42
2019-04-07T11:00:55.679Z,50.91
2019-04-07T11:01:56.708Z,50.15
2019-04-07T11:02:57.205Z,49.54
2019-04-07T11:03:57.659Z,50.85
2019-04-07T11:04:57.802Z,49.31
2019-04-07T11:05:59.414Z,49.60
2019-04-07T11:06:59.034Z,47.88
2019-04-07T11:07:59.076Z,46.61
2019-04-07T11:09:00.867Z,47.72
2019-04-07T11:10:01.569Z,48.33
2019-04-07T11:11:02.352Z,49.28
2019-04-07T11:12:03.263Z,48.91
2019-04-07T11:13:03.118Z,47.50
2019-04-07T11:14:03.168Z,47.41
2019-04-07T11:15:04.671Z,46.91
2019-04-07T11:16:04.947Z,48.17
2019-04-07T11:17:04.855Z,47.55
2019-04-07T11:18:05.347Z,46.83
2019-04-07T11:19:06.914Z,47.66
2019-04-07T11:20:08.148Z,48.16
2019-04-07T11:21:07.203Z,47.48
2019-04-07T11:22:08.771Z,47.81
2019-04-07T11:23:09.754Z,47.30
2019-04-07T11:24:09.002Z,46.91
2019-04-07T11:25:10.834Z,46.63
2019-04-07T11:26:10.121Z,47.45
2019-04-07T11:27:13.026Z,48.48
2019-04-07T11:28:12.266Z,45.83
2019-04-07T11:29:12.201Z,45.42
2019-04-07T11:30:13.874Z,46.09
2019-04-07T11:31:13.581Z,45.59
2019-04-07T11:31:22.115Z,45.80
2019-04-07T11:32:24.205Z,45.82
2019-04-07T11:33:24.504Z,45.66
2019-04-07T11:34:24.255Z,45.44
2019-04-07T11:35:28.682Z,45.37
2019-04-07T11:36:25.566Z,46.35
2019-04-07T11:37:26.482Z,45.55
2019-04-07T11:38:26.770Z,46.04
2019-04-07T11:39:27.470Z,44.07
2019-04-07T11:40:28.153Z,44.96
2019-04-07T11:41:29.010Z,44.62
2019-04-07T11:42:30.697Z,44.09
2019-04-07T11:43:30.480Z,45.66
2019-04-07T11:44:31.270Z,45.99
2019-04-07T11:45:31.451Z,46.52
2019-04-07T11:46:34.029Z,45.11
2019-04-07T11:47:32.954Z,46.19
2019-04-07T11:48:33.361Z,45.00
2019-04-07T11:49:35.709Z,46.11
2019-04-07T11:50:34.755Z,46.21
2019-04-07T11:51:36.868Z,45.69
2019-04-07T11:52:36.570Z,45.42
2019-04-07T11:53:37.055Z,44.89
2019-04-07T11:54:38.601Z,45.16
2019-04-07T11:55:39.258Z,45.15
2019-04-07T11:56:40.183Z,45.40
2019-04-07T11:57:43.349Z,44.86
2019-04-07T11:58:40.843Z,46.00
2019-04-07T11:59:41.276Z,46.02
2019-04-07T12:00:42.039Z,46.65
2019-04-07T12:01:46.084Z,45.36
2019-04-07T12:02:44.191Z,46.15
2019-04-07T12:03:43.824Z,46.36
2019-04-07T12:04:45.385Z,45.30
2019-04-07T12:05:46.116Z,45.37
2019-04-07T12:06:48.157Z,46.56
2019-04-07T12:07:45.841Z,46.65
2019-04-07T12:08:46.760Z,46.31
2019-04-07T12:09:47.712Z,45.40
2019-04-07T12:10:56.170Z,44.36
2019-04-07T12:11:48.400Z,45.64
2019-04-07T12:12:49.988Z,46.19
2019-04-07T12:13:50.965Z,45.59
2019-04-07T12:14:52.465Z,46.08
2019-04-07T12:15:50.982Z,45.88
2019-04-07T12:16:53.467Z,46.37
2019-04-07T12:17:52.451Z,46.33
2019-04-07T12:18:53.720Z,45.98
2019-04-07T12:19:56.534Z,46.49
2019-04-07T12:20:54.686Z,46.21
2019-04-07T12:21:56.444Z,45.43
2019-04-07T12:22:56.985Z,45.91
2019-04-07T12:23:58.317Z,45.46
2019-04-07T12:25:00.697Z,46.39
2019-04-07T12:25:57.909Z,46.83
2019-04-07T12:27:01.037Z,45.74
2019-04-07T12:28:00.105Z,46.44
2019-04-07T12:29:00.485Z,45.82
2019-04-07T12:30:01.240Z,45.75
2019-04-07T12:31:02.030Z,45.54
2019-04-07T12:32:02.486Z,45.77
2019-04-07T12:33:04.992Z,44.61
2019-04-07T12:34:03.900Z,45.60
2019-04-07T12:35:04.222Z,45.65
2019-04-07T12:36:05.148Z,45.51
2019-04-07T12:37:06.862Z,45.11
2019-04-07T12:38:10.099Z,44.51
2019-04-07T12:39:07.145Z,44.59
2019-04-07T12:40:07.602Z,45.17
2019-04-07T12:41:15.035Z,45.17
2019-04-07T12:42:08.528Z,45.38
2019-04-07T12:43:12.124Z,45.32
2019-04-07T12:44:08.617Z,45.28
2019-04-07T12:45:11.178Z,44.96
2019-04-07T12:46:10.145Z,44.98
2019-04-07T12:47:11.358Z,45.48